Time;durP1;ratioP1;P1;durP2;ratioP2;P2;SDS_P1;SDS_P2;PMS_P1;PMS_P2;Temp;Humidity;BMP_temperature;BMP_pressure;BME280_temperature;BME280_humidity;BME280_pressure;Samples;Min_cycle;Max_cycle;Signal;HPM_P1;HPM_P2
2022/02/05 00:02:10;;;;;;;19.57;12.10;;;5.30;99.90;;;;;;5045491;28;20214;-68
2022/02/05 00:04:38;;;;;;;18.50;12.20;;;5.30;99.90;;;;;;5048017;28;20210;-67
2022/02/05 00:07:07;;;;;;;18.93;12.13;;;5.30;99.90;;;;;;5047200;28;20219;-71
2022/02/05 00:09:45;;;;;;;19.03;11.83;;;5.30;99.90;;;;;;5050990;28;20586;-67
2022/02/05 00:12:35;;;;;;;21.03;12.80;;;5.30;99.90;;;;;;5050098;28;20961;-66
2022/02/05 00:15:20;;;;;;;22.73;12.93;;;5.30;99.90;;;;;;5047409;28;20201;-67
2022/02/05 00:40:03;;;;;;;21.27;13.80;;;5.40;99.90;;;;;;5050573;28;20689;-67
2022/02/05 00:42:37;;;;;;;23.37;13.60;;;5.40;99.90;;;;;;5053307;28;20205;-67
2022/02/05 00:45:07;;;;;;;21.73;13.30;;;5.40;99.90;;;;;;5052757;28;20267;-67
2022/02/05 00:47:36;;;;;;;21.57;13.33;;;5.40;99.90;;;;;;5052317;28;20256;-66
2022/02/05 00:50:06;;;;;;;20.30;12.93;;;5.50;99.90;;;;;;5047460;28;20297;-66
2022/02/05 00:52:34;;;;;;;21.13;14.03;;;5.50;99.90;;;;;;5053473;28;20214;-66
2022/02/05 00:55:08;;;;;;;24.27;13.63;;;5.50;99.90;;;;;;5051317;28;20264;-66
2022/02/05 00:57:45;;;;;;;23.27;14.63;;;5.50;99.90;;;;;;5051579;28;20241;-66
2022/02/05 01:00:16;;;;;;;21.53;14.00;;;5.50;99.90;;;;;;5053387;28;20656;-67
2022/02/05 01:02:42;;;;;;;22.00;14.27;;;5.50;99.90;;;;;;5051293;28;20202;-67
2022/02/05 01:05:10;;;;;;;21.27;13.37;;;5.50;99.90;;;;;;5053006;28;20230;-66
2022/02/05 01:07:40;;;;;;;20.90;13.37;;;5.50;99.90;;;;;;5052407;28;20206;-65
2022/02/05 01:10:07;;;;;;;22.70;13.27;;;5.50;99.90;;;;;;5052867;28;20693;-66
2022/02/05 01:12:37;;;;;;;22.17;13.27;;;5.50;99.90;;;;;;5053059;28;20212;-66
2022/02/05 01:15:05;;;;;;;20.83;13.27;;;5.60;99.90;;;;;;5052499;28;20213;-66
2022/02/05 01:17:37;;;;;;;19.93;13.13;;;5.50;99.90;;;;;;5052489;28;20229;-67
2022/02/05 01:20:36;;;;;;;23.97;12.90;;;5.50;99.90;;;;;;5052464;28;20293;-66
2022/02/05 01:23:08;;;;;;;26.07;14.20;;;5.60;99.90;;;;;;5048347;28;20269;-66
2022/02/05 01:25:40;;;;;;;22.27;13.30;;;5.60;99.90;;;;;;5051364;28;20765;-66
2022/02/05 01:28:12;;;;;;;21.13;12.87;;;5.60;99.90;;;;;;5052125;28;20289;-66
2022/02/05 01:30:42;;;;;;;20.43;12.27;;;5.60;99.90;;;;;;5052576;28;20217;-66
2022/02/05 01:33:24;;;;;;;18.67;12.43;;;5.60;99.90;;;;;;5051952;28;20264;-66
2022/02/05 01:36:08;;;;;;;21.33;12.97;;;5.70;99.90;;;;;;5047340;28;20305;-65
2022/02/05 01:50:18;;;;;;;21.47;13.57;;;5.60;99.90;;;;;;5051347;28;20868;-66
2022/02/05 01:53:05;;;;;;;20.10;12.63;;;5.60;99.90;;;;;;5047939;28;20206;-64
2022/02/05 01:55:49;;;;;;;18.83;12.37;;;5.70;99.90;;;;;;5050848;28;20212;-65
2022/02/05 01:58:22;;;;;;;20.60;12.53;;;5.60;99.90;;;;;;5051475;28;20246;-65
2022/02/05 02:06:29;;;;;;;19.57;12.30;;;5.60;99.90;;;;;;5044270;28;20815;-65
2022/02/05 02:11:45;;;;;;;18.43;11.53;;;5.60;99.90;;;;;;5047539;28;20197;-65
2022/02/05 02:19:49;;;;;;;20.20;11.33;;;5.60;99.90;;;;;;5035087;28;20242;-66
2022/02/05 02:22:28;;;;;;;22.07;11.73;;;5.60;99.90;;;;;;5051372;28;20575;-67
2022/02/05 02:25:03;;;;;;;16.67;10.83;;;5.60;99.90;;;;;;5049747;28;20598;-66
2022/02/05 02:27:37;;;;;;;18.20;10.60;;;5.60;99.90;;;;;;5050830;28;20208;-65
2022/02/05 02:30:12;;;;;;;15.27;10.53;;;5.70;99.90;;;;;;5050936;28;20240;-66
2022/02/05 02:32:42;;;;;;;17.83;11.10;;;5.70;99.90;;;;;;5050447;28;20550;-65
2022/02/05 02:35:14;;;;;;;18.13;11.40;;;5.60;99.90;;;;;;5050495;28;20198;-66
2022/02/05 02:37:49;;;;;;;16.77;10.27;;;5.70;99.90;;;;;;5043996;28;20197;-66
2022/02/05 02:40:25;;;;;;;16.43;11.13;;;5.60;99.90;;;;;;5050791;28;20678;-67
2022/02/05 02:42:59;;;;;;;16.33;10.37;;;5.60;99.90;;;;;;5050916;28;20296;-66
2022/02/05 02:45:25;;;;;;;16.03;10.47;;;5.60;99.90;;;;;;5049687;28;20263;-65
2022/02/05 02:47:52;;;;;;;17.93;11.27;;;5.70;99.90;;;;;;5050463;28;20583;-67
2022/02/05 02:50:31;;;;;;;16.63;10.53;;;5.70;99.90;;;;;;5050192;28;20216;-66
2022/02/05 02:58:31;;;;;;;16.10;9.80;;;5.70;99.90;;;;;;5050307;28;20580;-66
2022/02/05 03:01:00;;;;;;;15.90;10.17;;;5.70;99.90;;;;;;5050663;28;20221;-67
2022/02/05 03:03:27;;;;;;;16.27;10.13;;;5.70;99.90;;;;;;5049918;28;20237;-67
2022/02/05 03:05:54;;;;;;;14.53;9.37;;;5.70;99.90;;;;;;5049826;28;20229;-66
2022/02/05 03:08:22;;;;;;;15.27;9.73;;;5.70;99.90;;;;;;5049823;28;20208;-67
2022/02/05 03:10:49;;;;;;;15.83;9.50;;;5.70;99.90;;;;;;5050326;28;20201;-66
2022/02/05 03:13:16;;;;;;;14.60;9.47;;;5.70;99.90;;;;;;5050472;28;20216;-66
2022/02/05 03:15:43;;;;;;;13.80;8.63;;;5.70;99.90;;;;;;5049936;28;20198;-67
2022/02/05 03:18:14;;;;;;;14.97;8.47;;;5.80;99.90;;;;;;5050721;28;20214;-67
2022/02/05 03:20:41;;;;;;;12.60;8.63;;;5.80;99.90;;;;;;5050592;28;20490;-66
2022/02/05 03:23:08;;;;;;;13.63;8.97;;;5.80;99.90;;;;;;5043326;28;20399;-66
2022/02/05 03:25:36;;;;;;;14.23;8.70;;;5.80;99.90;;;;;;5050491;28;20236;-66
2022/02/05 03:28:04;;;;;;;15.57;8.90;;;5.80;99.90;;;;;;5050256;28;20206;-66
2022/02/05 03:30:31;;;;;;;13.73;8.93;;;5.80;99.90;;;;;;5050650;28;20274;-68
2022/02/05 03:32:59;;;;;;;13.40;8.47;;;5.80;99.90;;;;;;5049269;28;20212;-67
2022/02/05 03:35:26;;;;;;;12.93;8.63;;;5.80;99.90;;;;;;5049517;28;20205;-67
2022/02/05 03:37:53;;;;;;;12.47;8.13;;;5.80;99.90;;;;;;5044811;28;20206;-66
2022/02/05 03:40:20;;;;;;;12.03;8.63;;;5.80;99.90;;;;;;5050275;28;20289;-67
2022/02/05 03:42:48;;;;;;;13.47;8.30;;;5.80;99.90;;;;;;5050206;28;20209;-67
2022/02/05 03:45:15;;;;;;;15.00;8.10;;;5.80;99.90;;;;;;5049871;28;20221;-67
2022/02/05 03:47:42;;;;;;;12.87;7.83;;;5.80;99.90;;;;;;5049174;28;20719;-66
2022/02/05 03:50:10;;;;;;;12.30;8.57;;;5.80;99.90;;;;;;5049637;28;20263;-67
2022/02/05 03:52:38;;;;;;;11.37;7.60;;;5.80;99.90;;;;;;5050617;28;20585;-67
2022/02/05 03:55:07;;;;;;;11.53;7.53;;;5.80;99.90;;;;;;5049978;28;20698;-66
2022/02/05 03:57:34;;;;;;;11.27;7.73;;;5.80;99.90;;;;;;5050060;28;20238;-67
2022/02/05 04:00:06;;;;;;;12.67;7.77;;;5.70;99.90;;;;;;5050175;28;20502;-68
2022/02/05 04:02:33;;;;;;;12.10;7.97;;;5.80;99.90;;;;;;5050394;28;20623;-68
2022/02/05 04:05:00;;;;;;;10.20;7.53;;;5.80;99.90;;;;;;5050078;28;20239;-67
2022/02/05 04:07:30;;;;;;;10.40;7.20;;;5.70;99.90;;;;;;5049702;28;20206;-66
2022/02/05 04:10:00;;;;;;;12.07;7.53;;;5.70;99.90;;;;;;5050002;28;20218;-66
2022/02/05 04:17:57;;;;;;;10.67;7.07;;;5.70;99.90;;;;;;5048268;28;20209;-67
2022/02/05 04:20:24;;;;;;;11.07;7.27;;;5.80;99.90;;;;;;5049264;28;20649;-67
2022/02/05 04:22:51;;;;;;;8.90;6.83;;;5.70;99.90;;;;;;5048268;28;20208;-66
2022/02/05 04:25:18;;;;;;;7.93;6.43;;;5.70;99.90;;;;;;5047113;28;20226;-67
2022/02/05 04:27:45;;;;;;;10.13;6.63;;;5.80;99.90;;;;;;5049862;28;20209;-67
2022/02/05 04:30:13;;;;;;;8.53;5.50;;;5.80;99.90;;;;;;5049811;28;20210;-67
2022/02/05 04:32:41;;;;;;;8.13;5.67;;;5.80;99.90;;;;;;5049571;28;20581;-66
2022/02/05 04:35:08;;;;;;;8.33;5.50;;;5.80;99.90;;;;;;5049211;28;20288;-66
2022/02/05 04:37:35;;;;;;;9.00;5.60;;;5.80;99.90;;;;;;5049620;28;20206;-67
2022/02/05 04:40:14;;;;;;;9.57;5.70;;;5.80;99.90;;;;;;5049233;28;20249;-65
2022/02/05 04:42:49;;;;;;;6.33;5.10;;;5.80;99.90;;;;;;5049327;28;20300;-67
2022/02/05 04:48:23;;;;;;;5.93;4.17;;;5.80;99.90;;;;;;5041391;28;20213;-66
2022/02/05 04:51:13;;;;;;;7.70;4.27;;;5.80;99.90;;;;;;5046047;28;20225;-67
2022/02/05 04:53:59;;;;;;;4.43;3.17;;;5.90;99.90;;;;;;5048566;28;20722;-66
2022/02/05 04:56:40;;;;;;;2.40;2.20;;;5.90;99.90;;;;;;5040460;28;20242;-66
2022/02/05 04:59:27;;;;;;;2.53;1.73;;;5.80;99.90;;;;;;5049381;28;20271;-66
2022/02/05 05:02:16;;;;;;;1.10;1.00;;;5.80;99.90;;;;;;5049318;28;20205;-67
2022/02/05 05:04:49;;;;;;;0.90;0.77;;;5.70;99.90;;;;;;5048999;28;20218;-67
2022/02/05 05:10:06;;;;;;;0.60;0.60;;;5.50;99.90;;;;;;5049613;28;20570;-67
2022/02/05 05:12:49;;;;;;;0.77;0.50;;;5.40;99.90;;;;;;5053397;28;20539;-66
2022/02/05 05:15:28;;;;;;;0.53;0.40;;;5.20;99.90;;;;;;5052373;28;20284;-67
2022/02/05 05:20:51;;;;;;;0.50;0.50;;;5.00;99.90;;;;;;5052490;28;20291;-66
2022/02/05 05:23:18;;;;;;;0.60;0.60;;;4.90;99.90;;;;;;5052605;28;20570;-67
2022/02/05 05:25:45;;;;;;;0.77;0.50;;;4.90;99.90;;;;;;5052320;28;20226;-67
2022/02/05 05:28:11;;;;;;;0.30;0.30;;;4.80;99.90;;;;;;5051337;28;20214;-66
2022/02/05 05:30:38;;;;;;;0.43;0.43;;;4.70;99.90;;;;;;5052357;28;20213;-66
2022/02/05 05:33:07;;;;;;;0.77;0.77;;;4.60;99.90;;;;;;5049405;28;20551;-66
2022/02/05 05:35:34;;;;;;;0.43;0.43;;;4.60;99.90;;;;;;5052740;28;20197;-67
2022/02/05 05:38:02;;;;;;;0.60;0.60;;;4.50;99.90;;;;;;5052509;28;20206;-66
2022/02/05 05:40:30;;;;;;;0.50;0.50;;;4.50;99.90;;;;;;5052035;28;20210;-66
2022/02/05 05:43:01;;;;;;;0.87;0.60;;;4.40;99.90;;;;;;5051912;28;20240;-68
2022/02/05 05:45:40;;;;;;;0.57;0.50;;;4.30;99.90;;;;;;5051901;28;20222;-67
2022/02/05 05:48:11;;;;;;;0.60;0.60;;;4.30;99.90;;;;;;5051294;28;20208;-66
2022/02/05 05:53:22;;;;;;;0.40;0.40;;;4.20;99.90;;;;;;5050469;28;20248;-66
2022/02/05 05:55:49;;;;;;;0.50;0.50;;;4.20;99.90;;;;;;5051703;28;20223;-67
2022/02/05 05:58:18;;;;;;;0.50;0.50;;;4.20;99.90;;;;;;5051589;28;20241;-67
2022/02/05 06:00:45;;;;;;;0.50;0.50;;;4.20;99.90;;;;;;5051816;28;20206;-67
2022/02/05 06:03:13;;;;;;;0.57;0.57;;;4.20;99.90;;;;;;5052719;28;20230;-67
2022/02/05 06:05:40;;;;;;;0.63;0.50;;;4.20;99.90;;;;;;5049531;28;20674;-67
2022/02/05 06:08:07;;;;;;;1.63;0.40;;;4.20;99.90;;;;;;5052325;28;20212;-68
2022/02/05 06:10:34;;;;;;;0.50;0.33;;;4.20;99.90;;;;;;5052575;28;20656;-67
2022/02/05 06:13:01;;;;;;;1.07;0.40;;;4.20;99.90;;;;;;5051629;28;20273;-68
2022/02/05 06:15:28;;;;;;;0.50;0.50;;;4.10;99.90;;;;;;5050779;28;20566;-67
2022/02/05 06:17:55;;;;;;;1.13;0.60;;;4.10;99.90;;;;;;5051695;28;20212;-67
2022/02/05 06:20:23;;;;;;;0.97;0.77;;;4.10;99.90;;;;;;5051629;28;20717;-65
2022/02/05 06:22:50;;;;;;;0.97;0.83;;;4.10;99.90;;;;;;5051904;28;20206;-67
2022/02/05 06:25:17;;;;;;;0.70;0.70;;;4.00;99.90;;;;;;5051377;28;20753;-68
2022/02/05 06:27:44;;;;;;;1.23;1.10;;;4.00;99.90;;;;;;5052044;28;20212;-67
2022/02/05 06:30:12;;;;;;;0.90;0.90;;;4.00;99.90;;;;;;5051413;28;20210;-67
2022/02/05 06:32:39;;;;;;;0.97;0.83;;;4.00;99.90;;;;;;5051409;28;20210;-68
2022/02/05 06:35:06;;;;;;;2.10;1.00;;;4.00;99.90;;;;;;5051490;28;20213;-68
2022/02/05 06:37:34;;;;;;;1.20;1.10;;;3.90;99.90;;;;;;5050425;28;20202;-68
2022/02/05 06:40:01;;;;;;;2.03;1.30;;;3.90;99.90;;;;;;5050457;28;20994;-67
2022/02/05 06:42:28;;;;;;;1.30;1.20;;;3.90;99.90;;;;;;5050924;28;20667;-67
2022/02/05 06:44:55;;;;;;;1.30;1.20;;;3.90;99.90;;;;;;5050980;28;20212;-68
2022/02/05 06:47:22;;;;;;;1.97;1.33;;;3.90;99.90;;;;;;5050545;28;20214;-67
2022/02/05 06:49:49;;;;;;;2.10;1.47;;;3.90;99.90;;;;;;5050598;28;20210;-67
2022/02/05 06:52:15;;;;;;;3.30;1.40;;;3.90;99.90;;;;;;5050296;28;20202;-68
2022/02/05 06:54:44;;;;;;;3.53;1.40;;;3.90;99.90;;;;;;5047343;28;20216;-71
2022/02/05 06:57:10;;;;;;;1.60;1.13;;;3.90;99.90;;;;;;5052724;28;20313;-72
2022/02/05 06:59:37;;;;;;;3.03;1.60;;;3.90;99.90;;;;;;5050557;28;20210;-71
2022/02/05 07:02:05;;;;;;;2.20;1.57;;;3.90;99.90;;;;;;5054851;28;20240;-69
2022/02/05 07:04:32;;;;;;;2.40;1.40;;;3.90;99.90;;;;;;5054786;28;20205;-69
2022/02/05 07:06:58;;;;;;;2.47;1.27;;;3.90;99.90;;;;;;5051492;28;20233;-69
2022/02/05 07:09:27;;;;;;;2.27;0.90;;;3.90;99.90;;;;;;5052989;28;20206;-71
2022/02/05 07:11:58;;;;;;;1.73;1.23;;;3.90;99.90;;;;;;5051079;28;20659;-71
2022/02/05 07:14:29;;;;;;;3.00;1.20;;;4.00;99.90;;;;;;5055585;28;20563;-72
2022/02/05 07:17:03;;;;;;;3.00;1.27;;;4.00;99.90;;;;;;5050625;28;20209;-71
2022/02/05 07:19:41;;;;;;;2.87;1.50;;;4.00;99.90;;;;;;5054315;28;20194;-70
2022/02/05 07:22:08;;;;;;;1.63;1.10;;;4.00;99.90;;;;;;5050480;28;20233;-70
2022/02/05 07:24:55;;;;;;;1.30;0.97;;;4.00;99.90;;;;;;5046863;28;20241;-71
2022/02/05 07:30:13;;;;;;;1.53;1.00;;;4.10;99.90;;;;;;5033241;28;20215;-70
2022/02/05 07:32:40;;;;;;;2.77;0.90;;;4.10;99.90;;;;;;5054250;28;20233;-71
2022/02/05 07:35:08;;;;;;;1.70;1.10;;;4.10;99.90;;;;;;5056921;28;20209;-71
2022/02/05 07:37:34;;;;;;;4.67;1.40;;;4.10;99.90;;;;;;5055170;28;20216;-71
2022/02/05 07:40:01;;;;;;;2.17;0.90;;;4.20;99.90;;;;;;5053443;28;20233;-71
2022/02/05 07:42:30;;;;;;;2.67;1.13;;;4.20;99.90;;;;;;5053989;28;20244;-70
2022/02/05 07:44:57;;;;;;;1.47;1.03;;;4.30;99.90;;;;;;5052006;28;20237;-70
2022/02/05 07:47:25;;;;;;;4.73;1.23;;;4.30;99.90;;;;;;5050971;28;20261;-70
2022/02/05 07:49:51;;;;;;;1.67;1.20;;;4.40;99.90;;;;;;5052076;28;20245;-69
2022/02/05 07:52:18;;;;;;;3.10;0.97;;;4.40;99.90;;;;;;5051011;28;20209;-67
2022/02/05 07:54:45;;;;;;;4.50;1.00;;;4.50;99.90;;;;;;5050445;28;20210;-70
2022/02/05 07:57:12;;;;;;;2.73;1.10;;;4.50;99.90;;;;;;5050054;28;20353;-71
2022/02/05 07:59:41;;;;;;;4.40;1.27;;;4.60;99.90;;;;;;5050470;28;20210;-71
2022/02/05 08:02:09;;;;;;;6.07;1.20;;;4.60;99.90;;;;;;5053790;28;20583;-73
2022/02/05 08:04:36;;;;;;;4.13;1.50;;;4.60;99.90;;;;;;5048237;28;20285;-70
2022/02/05 08:07:06;;;;;;;2.53;0.77;;;4.60;99.90;;;;;;5050254;28;20253;-71
2022/02/05 08:09:46;;;;;;;5.90;1.30;;;4.70;99.90;;;;;;5051578;28;20220;-71
2022/02/05 08:12:15;;;;;;;6.40;1.50;;;4.70;99.90;;;;;;5053673;28;20241;-70
2022/02/05 08:14:47;;;;;;;4.43;1.30;;;4.70;99.90;;;;;;5053042;28;20442;-69
2022/02/05 08:17:19;;;;;;;3.70;1.30;;;4.70;99.90;;;;;;5052019;28;20576;-68
2022/02/05 08:19:46;;;;;;;2.13;1.07;;;4.80;99.90;;;;;;5052198;28;20197;-70
2022/02/05 08:22:14;;;;;;;2.40;1.40;;;4.90;99.90;;;;;;5054621;28;20218;-71
2022/02/05 08:24:41;;;;;;;7.50;1.50;;;4.90;99.90;;;;;;5052681;28;20202;-71
2022/02/05 08:27:08;;;;;;;4.63;1.50;;;5.00;99.90;;;;;;5050588;28;20303;-71
2022/02/05 08:29:37;;;;;;;4.07;1.33;;;5.10;99.90;;;;;;5052301;28;20296;-71
2022/02/05 08:32:07;;;;;;;3.90;1.17;;;5.20;99.90;;;;;;5050932;28;20210;-69
2022/02/05 08:34:34;;;;;;;3.17;1.13;;;5.20;99.90;;;;;;5050740;28;20496;-69
2022/02/05 08:37:01;;;;;;;4.67;1.43;;;5.30;99.90;;;;;;5051835;28;20385;-71
2022/02/05 08:39:28;;;;;;;2.40;1.17;;;5.30;99.90;;;;;;5051028;28;20305;-70
2022/02/05 08:41:59;;;;;;;6.27;1.50;;;5.30;99.90;;;;;;5045260;28;20248;-73
2022/02/05 08:44:26;;;;;;;3.37;1.30;;;5.30;99.90;;;;;;5049174;28;20267;-70
2022/02/05 08:46:53;;;;;;;4.43;1.40;;;5.30;99.90;;;;;;5051937;28;20229;-71
2022/02/05 08:49:22;;;;;;;3.50;1.53;;;5.30;99.90;;;;;;5055682;28;20215;-71
2022/02/05 08:51:49;;;;;;;2.27;1.40;;;5.40;99.90;;;;;;5055831;28;20202;-68
2022/02/05 08:54:15;;;;;;;1.43;1.17;;;5.30;99.90;;;;;;5054668;28;20216;-69
2022/02/05 08:56:42;;;;;;;2.40;1.10;;;5.40;99.90;;;;;;5058884;28;20230;-70
2022/02/05 08:59:09;;;;;;;2.47;1.40;;;5.50;99.90;;;;;;5054971;28;20679;-68
2022/02/05 09:01:47;;;;;;;2.87;1.47;;;5.50;99.90;;;;;;5055325;28;20276;-70
2022/02/05 09:04:28;;;;;;;1.70;1.30;;;5.50;99.90;;;;;;5053376;28;20202;-70
2022/02/05 09:06:59;;;;;;;5.03;1.73;;;5.50;99.90;;;;;;5056063;28;20720;-70
2022/02/05 09:09:36;;;;;;;2.47;1.47;;;5.40;99.90;;;;;;5055559;28;20551;-72
2022/02/05 09:12:17;;;;;;;3.23;1.90;;;5.30;99.90;;;;;;5055212;28;20206;-73
2022/02/05 09:14:48;;;;;;;4.63;1.60;;;5.30;99.90;;;;;;5052613;28;20202;-71
2022/02/05 09:17:16;;;;;;;4.00;1.57;;;5.20;99.90;;;;;;5053194;28;20213;-71
2022/02/05 09:19:43;;;;;;;3.40;1.47;;;5.10;99.90;;;;;;5055622;28;20487;-70
2022/02/05 09:22:11;;;;;;;4.60;1.70;;;5.10;99.90;;;;;;5053015;28;20255;-69
2022/02/05 09:24:39;;;;;;;4.77;1.90;;;5.00;99.90;;;;;;5052314;28;20218;-69
2022/02/05 09:27:09;;;;;;;2.37;1.77;;;5.00;99.90;;;;;;5053562;28;20717;-70
2022/02/05 09:29:43;;;;;;;2.83;1.67;;;5.00;99.90;;;;;;5054739;28;20205;-70
2022/02/05 09:32:10;;;;;;;3.77;1.87;;;4.90;99.90;;;;;;5053810;28;20630;-70
2022/02/05 09:34:38;;;;;;;2.87;1.70;;;4.90;99.90;;;;;;5070338;28;20269;-72
2022/02/05 09:37:07;;;;;;;4.63;2.23;;;4.90;99.90;;;;;;5064020;28;20205;-72
2022/02/05 09:39:36;;;;;;;3.57;1.80;;;4.90;99.90;;;;;;5060446;28;20198;-72
2022/02/05 09:42:03;;;;;;;2.87;1.60;;;4.90;99.90;;;;;;5062876;28;20210;-71
2022/02/05 09:44:30;;;;;;;4.63;1.80;;;4.90;99.90;;;;;;5064803;28;20201;-73
2022/02/05 09:46:58;;;;;;;7.97;2.10;;;5.00;99.90;;;;;;5063079;28;20248;-71
2022/02/05 09:49:26;;;;;;;6.17;1.70;;;5.10;99.90;;;;;;5050461;28;20284;-71
2022/02/05 09:52:06;;;;;;;7.13;1.70;;;5.10;99.90;;;;;;5055970;28;20202;-73
2022/02/05 09:54:36;;;;;;;2.63;1.80;;;5.10;99.90;;;;;;5053061;28;20292;-72
2022/02/05 09:57:03;;;;;;;3.03;1.63;;;5.10;99.90;;;;;;5053157;28;20241;-71
2022/02/05 09:59:31;;;;;;;4.37;2.00;;;5.10;99.90;;;;;;5051307;28;20549;-70
2022/02/05 10:02:21;;;;;;;5.47;2.17;;;5.10;99.90;;;;;;5052976;28;20210;-71
2022/02/05 10:04:57;;;;;;;5.20;1.97;;;5.20;99.90;;;;;;5049135;28;20232;-68
2022/02/05 10:07:25;;;;;;;5.37;1.80;;;5.20;99.90;;;;;;5055425;28;20279;-72
2022/02/05 10:09:57;;;;;;;5.97;2.47;;;5.20;99.90;;;;;;5054272;28;20206;-71
2022/02/05 10:12:24;;;;;;;5.23;1.97;;;5.10;99.90;;;;;;5050285;28;20214;-72
2022/02/05 10:14:54;;;;;;;4.97;2.07;;;5.20;99.90;;;;;;5053673;28;20205;-72
2022/02/05 10:17:21;;;;;;;5.20;2.80;;;5.20;99.90;;;;;;5054412;28;20194;-71
2022/02/05 10:19:50;;;;;;;6.53;2.37;;;5.20;99.90;;;;;;5054206;28;20236;-71
2022/02/05 10:22:19;;;;;;;7.00;2.30;;;5.20;99.90;;;;;;5054231;28;20232;-72
2022/02/05 10:24:50;;;;;;;5.87;2.53;;;5.20;99.90;;;;;;5054045;28;20539;-71
2022/02/05 10:27:28;;;;;;;3.40;1.93;;;5.20;99.90;;;;;;5054616;28;20690;-72
2022/02/05 10:30:07;;;;;;;6.00;2.30;;;5.20;99.90;;;;;;5054319;28;20206;-72
2022/02/05 10:32:40;;;;;;;4.77;2.30;;;5.20;99.90;;;;;;5054037;28;20217;-71
2022/02/05 10:35:19;;;;;;;4.17;2.07;;;5.10;99.90;;;;;;5052401;28;20828;-72
2022/02/05 10:37:52;;;;;;;4.20;2.00;;;5.10;99.90;;;;;;5048216;28;20244;-72
2022/02/05 10:40:22;;;;;;;3.57;1.83;;;5.00;99.90;;;;;;5050358;28;20242;-70
2022/02/05 10:43:02;;;;;;;5.30;2.50;;;5.00;99.90;;;;;;5049540;28;20595;-72
2022/02/05 10:45:40;;;;;;;4.97;2.60;;;5.10;99.90;;;;;;5053422;28;20205;-71
2022/02/05 10:48:07;;;;;;;9.00;2.40;;;5.00;99.90;;;;;;5053283;28;20209;-71
2022/02/05 10:50:35;;;;;;;5.33;2.73;;;5.00;99.90;;;;;;5052857;28;20512;-70
2022/02/05 10:53:13;;;;;;;5.53;2.50;;;5.00;99.90;;;;;;5052193;28;20206;-71
2022/02/05 10:55:52;;;;;;;5.43;2.27;;;5.00;99.90;;;;;;5052349;28;20209;-71
2022/02/05 10:58:33;;;;;;;7.13;2.80;;;5.10;99.90;;;;;;5052712;28;20234;-71
2022/02/05 11:06:59;;;;;;;5.37;2.63;;;5.40;99.90;;;;;;5051718;28;20300;-71
2022/02/05 11:09:26;;;;;;;5.50;2.50;;;5.70;99.90;;;;;;5051102;28;20205;-72
2022/02/05 11:20:18;;;;;;;4.27;2.20;;;7.00;99.90;;;;;;5051548;28;20255;-72
2022/02/05 11:22:49;;;;;;;5.60;2.60;;;7.00;99.90;;;;;;5051909;28;20326;-72
2022/02/05 11:25:17;;;;;;;8.83;3.10;;;6.90;99.90;;;;;;5054542;28;20289;-71
2022/02/05 11:27:44;;;;;;;4.03;2.27;;;6.80;99.90;;;;;;5054465;28;20293;-72
2022/02/05 11:30:32;;;;;;;4.87;2.33;;;6.70;99.90;;;;;;5055695;28;20202;-72
2022/02/05 11:33:04;;;;;;;10.07;2.77;;;6.60;99.90;;;;;;5053788;28;20220;-71
2022/02/05 11:35:42;;;;;;;6.23;2.50;;;6.30;99.90;;;;;;5054554;28;20193;-72
2022/02/05 11:38:09;;;;;;;8.30;2.90;;;6.20;99.90;;;;;;5053526;28;20229;-71
2022/02/05 11:40:48;;;;;;;6.47;2.70;;;6.10;99.90;;;;;;5053032;28;20212;-71
2022/02/05 11:43:20;;;;;;;5.00;2.97;;;6.00;99.90;;;;;;5054438;28;20564;-72
2022/02/05 11:46:09;;;;;;;5.17;2.60;;;5.90;99.90;;;;;;5041850;28;20251;-72
2022/02/05 11:48:44;;;;;;;5.70;2.70;;;5.80;99.90;;;;;;5049108;28;20256;-72
2022/02/05 11:51:14;;;;;;;4.03;2.63;;;5.70;99.90;;;;;;5053501;28;20210;-72
2022/02/05 11:54:17;;;;;;;6.27;2.50;;;5.70;99.90;;;;;;5050307;28;20214;-70
2022/02/05 11:56:50;;;;;;;5.03;2.63;;;5.70;99.90;;;;;;4991361;28;20263;-72
2022/02/05 11:59:18;;;;;;;6.10;3.20;;;5.60;99.90;;;;;;4986962;28;20592;-72
2022/02/05 12:01:48;;;;;;;5.30;2.67;;;5.60;99.90;;;;;;5023256;28;20205;-72
2022/02/05 12:04:18;;;;;;;6.30;2.93;;;5.50;99.90;;;;;;5053118;28;20521;-72
2022/02/05 12:06:50;;;;;;;3.40;2.10;;;5.50;99.90;;;;;;5053138;28;20221;-71
2022/02/05 12:09:35;;;;;;;5.23;2.90;;;5.40;99.90;;;;;;5052847;28;20197;-72
2022/02/05 12:12:48;;;;;;;5.23;3.20;;;5.40;99.90;;;;;;5046612;28;20210;-72
2022/02/05 12:15:26;;;;;;;3.70;2.57;;;5.40;99.90;;;;;;5046381;28;20218;-73
2022/02/05 12:18:15;;;;;;;5.70;2.80;;;5.50;99.90;;;;;;5054365;28;20220;-72
2022/02/05 12:21:11;;;;;;;7.50;2.97;;;5.50;99.90;;;;;;5056486;28;20295;-72
2022/02/05 12:27:00;;;;;;;5.60;2.57;;;5.50;99.90;;;;;;5055292;28;20206;-72
2022/02/05 12:29:29;;;;;;;5.97;2.67;;;5.60;99.90;;;;;;5055408;28;20235;-70
2022/02/05 12:31:58;;;;;;;3.90;2.57;;;5.60;99.90;;;;;;5055024;28;20205;-72
2022/02/05 12:34:42;;;;;;;5.70;3.00;;;5.60;99.90;;;;;;5054458;28;20233;-71
2022/02/05 12:37:09;;;;;;;8.83;3.00;;;5.60;99.90;;;;;;5055192;28;20232;-70
2022/02/05 12:39:36;;;;;;;3.67;2.40;;;5.60;99.90;;;;;;5055427;28;20561;-70
2022/02/05 12:42:13;;;;;;;4.93;2.80;;;5.40;99.90;;;;;;5055066;28;20220;-69
2022/02/05 12:44:40;;;;;;;4.77;2.93;;;5.30;99.90;;;;;;5053662;28;20205;-71
2022/02/05 12:47:13;;;;;;;6.27;2.70;;;5.20;99.90;;;;;;5051175;28;20279;-70
2022/02/05 12:49:49;;;;;;;6.50;2.67;;;5.10;99.90;;;;;;5054254;28;20213;-69
2022/02/05 12:52:22;;;;;;;5.73;2.83;;;5.20;99.90;;;;;;5054399;28;20209;-71
2022/02/05 12:54:52;;;;;;;6.07;3.10;;;5.20;99.90;;;;;;5054618;28;20214;-70
2022/02/05 12:57:20;;;;;;;5.87;3.03;;;5.30;99.90;;;;;;5048904;28;20237;-72
2022/02/05 12:59:47;;;;;;;4.77;3.10;;;5.40;99.90;;;;;;5044358;28;20687;-68
2022/02/05 13:02:16;;;;;;;6.07;4.13;;;5.40;99.90;;;;;;5050968;28;20710;-65
2022/02/05 13:04:47;;;;;;;6.60;3.00;;;5.40;99.90;;;;;;5049680;28;20565;-66
2022/02/05 13:07:16;;;;;;;6.70;3.40;;;5.40;99.90;;;;;;5047509;28;20580;-67
2022/02/05 13:09:49;;;;;;;5.53;3.03;;;5.40;99.90;;;;;;5048009;28;20198;-69
2022/02/05 13:12:19;;;;;;;4.57;3.10;;;5.40;99.90;;;;;;5049330;28;20206;-66
2022/02/05 13:14:52;;;;;;;7.03;2.67;;;5.40;99.90;;;;;;5039285;28;20218;-65
2022/02/05 13:17:36;;;;;;;7.07;3.63;;;5.30;99.90;;;;;;5050622;28;20300;-66
2022/02/05 13:25:46;;;;;;;5.53;2.90;;;5.40;99.90;;;;;;5044339;28;20219;-66
2022/02/05 13:28:31;;;;;;;4.97;2.93;;;5.50;99.90;;;;;;5046235;28;20300;-67
2022/02/05 13:36:43;;;;;;;6.83;3.73;;;5.50;99.90;;;;;;5050772;28;20626;-66
2022/02/05 13:39:19;;;;;;;8.07;3.70;;;5.50;99.90;;;;;;5039578;28;20345;-68
2022/02/05 13:41:52;;;;;;;6.33;3.50;;;5.60;99.90;;;;;;5044835;28;20206;-65
2022/02/05 13:44:22;;;;;;;8.17;3.27;;;5.70;99.90;;;;;;5049113;28;20651;-66
2022/02/05 13:47:03;;;;;;;6.77;3.50;;;5.90;99.90;;;;;;5050687;28;20588;-69
2022/02/05 13:49:32;;;;;;;6.10;3.10;;;5.90;99.90;;;;;;5051737;28;20202;-72
2022/02/05 13:52:09;;;;;;;6.20;3.30;;;5.90;99.90;;;;;;5055363;28;20292;-73
2022/02/05 13:54:38;;;;;;;7.40;3.00;;;5.90;99.90;;;;;;5054611;28;20206;-72
2022/02/05 13:57:05;;;;;;;4.37;2.77;;;6.00;99.90;;;;;;5055239;28;20317;-70
2022/02/05 13:59:34;;;;;;;7.00;3.40;;;6.00;99.90;;;;;;5053958;28;20210;-71
2022/02/05 14:02:16;;;;;;;4.77;3.33;;;6.00;99.90;;;;;;5053325;28;20210;-72
2022/02/05 14:04:43;;;;;;;6.93;3.40;;;5.90;99.90;;;;;;5052264;28;20206;-70
2022/02/05 14:07:12;;;;;;;7.63;3.60;;;5.80;99.90;;;;;;5055177;28;20297;-70
2022/02/05 14:09:39;;;;;;;10.73;3.47;;;5.70;99.90;;;;;;5054353;28;20217;-70
2022/02/05 14:12:19;;;;;;;6.50;3.13;;;5.70;99.90;;;;;;5055020;28;20241;-71
2022/02/05 14:15:00;;;;;;;4.33;3.07;;;5.60;99.90;;;;;;5054755;28;20210;-70
2022/02/05 14:17:27;;;;;;;4.83;2.60;;;5.50;99.90;;;;;;5053864;28;20205;-70
2022/02/05 14:20:05;;;;;;;6.80;3.33;;;5.40;99.90;;;;;;5053576;28;20649;-69
2022/02/05 14:22:38;;;;;;;6.17;3.23;;;5.30;99.90;;;;;;5053308;28;20707;-69
2022/02/05 14:25:13;;;;;;;4.33;3.07;;;5.20;99.90;;;;;;5054331;28;20301;-69
2022/02/05 14:28:05;;;;;;;6.00;3.77;;;5.10;99.90;;;;;;5053514;28;20293;-69
2022/02/05 14:30:33;;;;;;;6.50;3.43;;;5.10;99.90;;;;;;5047081;28;20297;-70
2022/02/05 14:33:04;;;;;;;6.23;3.47;;;5.00;99.90;;;;;;5054521;28;20213;-69
2022/02/05 14:35:48;;;;;;;6.93;3.50;;;4.90;99.90;;;;;;5051793;28;20202;-70
2022/02/05 14:41:00;;;;;;;6.03;3.13;;;4.80;99.90;;;;;;5048430;28;20201;-71
2022/02/05 14:43:27;;;;;;;5.40;3.30;;;4.80;99.90;;;;;;5051732;28;20209;-69
2022/02/05 14:45:54;;;;;;;6.40;3.10;;;4.80;99.90;;;;;;5054000;28;20320;-72
2022/02/05 14:48:23;;;;;;;4.77;3.57;;;4.90;99.90;;;;;;5053052;28;20314;-71
2022/02/05 14:50:52;;;;;;;8.17;3.50;;;4.80;99.90;;;;;;5053408;28;20212;-70
2022/02/05 14:53:21;;;;;;;7.60;3.40;;;4.90;99.90;;;;;;5052444;28;20201;-69
2022/02/05 14:55:48;;;;;;;3.70;2.70;;;4.80;99.90;;;;;;5053121;28;20214;-72
2022/02/05 14:58:15;;;;;;;3.63;2.73;;;4.80;99.90;;;;;;5053352;28;20253;-72
2022/02/05 15:00:41;;;;;;;4.73;3.03;;;4.80;99.90;;;;;;5051106;28;20220;-72